Time;durP1;ratioP1;P1;durP2;ratioP2;P2;SDS_P1;SDS_P2;PMS_P1;PMS_P2;Temp;Humidity;BMP_temperature;BMP_pressure;BME280_temperature;BME280_humidity;BME280_pressure;Samples;Min_cycle;Max_cycle;Signal;HPM_P1;HPM_P2
2022/03/20 00:00:12;;;;;;;21.37;17.23;;;;;;;;;;507655;29;1212;-73
2022/03/20 00:00:28;;;;;;;21.77;17.02;;;;;;;;;;509888;29;762;-73
2022/03/20 00:00:44;;;;;;;21.80;17.67;;;;;;;;;;509433;29;754;-73
2022/03/20 00:01:02;;;;;;;21.30;17.58;;;;;;;;;;511859;28;770;-73
2022/03/20 00:01:17;;;;;;;21.73;17.10;;;;;;;;;;511032;29;1272;-73
2022/03/20 00:01:32;;;;;;;21.57;17.30;;;;;;;;;;510636;29;821;-73
2022/03/20 00:01:47;;;;;;;22.92;17.75;;;;;;;;;;510847;29;1182;-73
2022/03/20 00:02:04;;;;;;;23.70;18.10;;;;;;;;;;510827;29;829;-73
2022/03/20 00:02:19;;;;;;;22.10;17.90;;;;;;;;;;510816;29;754;-73
2022/03/20 00:02:35;;;;;;;21.60;17.47;;;;;;;;;;510906;29;742;-74
2022/03/20 00:02:51;;;;;;;21.77;17.80;;;;;;;;;;510642;29;956;-73
2022/03/20 00:03:07;;;;;;;23.20;17.90;;;;;;;;;;512659;28;828;-73
2022/03/20 00:03:24;;;;;;;25.05;18.10;;;;;;;;;;512426;28;1453;-73
2022/03/20 00:03:39;;;;;;;23.65;17.92;;;;;;;;;;511936;28;793;-73
2022/03/20 00:03:54;;;;;;;22.97;17.63;;;;;;;;;;511157;29;810;-73
2022/03/20 00:04:10;;;;;;;23.27;17.63;;;;;;;;;;511356;29;1023;-73
2022/03/20 00:04:25;;;;;;;21.90;17.37;;;;;;;;;;511334;29;952;-73
2022/03/20 00:04:40;;;;;;;21.63;17.13;;;;;;;;;;511516;29;825;-73
2022/03/20 00:04:55;;;;;;;23.27;17.10;;;;;;;;;;510690;28;1185;-73
2022/03/20 00:05:11;;;;;;;21.97;17.37;;;;;;;;;;508985;29;1284;-73
2022/03/20 00:05:26;;;;;;;21.42;18.20;;;;;;;;;;507025;29;1218;-73
2022/03/20 00:05:42;;;;;;;24.03;19.37;;;;;;;;;;505398;29;1223;-73
2022/03/20 00:05:58;;;;;;;24.77;19.77;;;;;;;;;;505259;29;772;-73
2022/03/20 00:06:14;;;;;;;25.25;19.63;;;;;;;;;;505244;29;1262;-73
2022/03/20 00:06:29;;;;;;;26.05;19.90;;;;;;;;;;503107;29;1411;-73
2022/03/20 00:06:44;;;;;;;25.30;19.47;;;;;;;;;;505248;29;1144;-73
2022/03/20 00:07:00;;;;;;;24.67;18.50;;;;;;;;;;505450;29;743;-73
2022/03/20 00:07:15;;;;;;;23.65;18.33;;;;;;;;;;505320;29;1238;-73
2022/03/20 00:07:33;;;;;;;23.13;18.20;;;;;;;;;;505243;29;766;-73
2022/03/20 00:07:48;;;;;;;22.30;17.90;;;;;;;;;;504837;29;1643;-73
2022/03/20 00:08:08;;;;;;;21.37;17.77;;;;;;;;;;504821;29;1405;-73
2022/03/20 00:08:24;;;;;;;25.45;20.08;;;;;;;;;;507153;29;1435;-73
2022/03/20 00:08:39;;;;;;;27.48;21.35;;;;;;;;;;509307;29;1122;-73
2022/03/20 00:08:55;;;;;;;28.90;22.60;;;;;;;;;;510626;29;738;-73
2022/03/20 00:09:11;;;;;;;30.20;22.58;;;;;;;;;;511335;29;871;-73
2022/03/20 00:09:26;;;;;;;30.15;22.10;;;;;;;;;;511643;29;786;-73
2022/03/20 00:09:42;;;;;;;26.77;21.77;;;;;;;;;;511733;29;766;-73
2022/03/20 00:09:57;;;;;;;25.98;20.83;;;;;;;;;;511304;29;1221;-73
2022/03/20 00:10:14;;;;;;;25.17;19.70;;;;;;;;;;510773;29;1138;-73
2022/03/20 00:10:30;;;;;;;24.17;19.25;;;;;;;;;;508080;29;1202;-73
2022/03/20 00:10:49;;;;;;;25.25;20.05;;;;;;;;;;507199;29;1968;-73
2022/03/20 00:11:04;;;;;;;25.73;20.80;;;;;;;;;;507137;29;1443;-73
2022/03/20 00:11:20;;;;;;;25.73;20.60;;;;;;;;;;507313;29;754;-73
2022/03/20 00:11:35;;;;;;;25.00;20.20;;;;;;;;;;507155;29;1232;-73
2022/03/20 00:11:50;;;;;;;28.07;21.07;;;;;;;;;;508324;29;1164;-73
2022/03/20 00:12:06;;;;;;;28.00;20.93;;;;;;;;;;509277;29;1301;-73
2022/03/20 00:12:21;;;;;;;29.40;22.33;;;;;;;;;;510068;29;1035;-73
2022/03/20 00:12:37;;;;;;;31.95;24.02;;;;;;;;;;511405;29;731;-73
2022/03/20 00:12:53;;;;;;;30.52;22.63;;;;;;;;;;511225;29;817;-73
2022/03/20 00:13:09;;;;;;;28.37;21.30;;;;;;;;;;509177;29;877;-73
2022/03/20 00:13:24;;;;;;;26.73;20.55;;;;;;;;;;510236;29;1525;-73
2022/03/20 00:13:40;;;;;;;25.80;19.67;;;;;;;;;;511578;29;765;-73
2022/03/20 00:13:55;;;;;;;24.73;19.67;;;;;;;;;;511285;28;1237;-73
2022/03/20 00:14:11;;;;;;;23.63;19.30;;;;;;;;;;513414;28;794;-73
2022/03/20 00:14:26;;;;;;;23.17;18.80;;;;;;;;;;511372;29;1184;-73
2022/03/20 00:14:41;;;;;;;23.97;19.33;;;;;;;;;;511604;29;733;-73
2022/03/20 00:14:56;;;;;;;24.23;20.08;;;;;;;;;;509363;29;1288;-73
2022/03/20 00:15:12;;;;;;;25.17;20.23;;;;;;;;;;509234;29;762;-73
2022/03/20 00:15:28;;;;;;;27.45;20.73;;;;;;;;;;509298;29;806;-73
2022/03/20 00:15:46;;;;;;;26.65;20.20;;;;;;;;;;509650;29;1384;-73
2022/03/20 00:16:03;;;;;;;23.77;18.20;;;;;;;;;;511451;29;754;-73
2022/03/20 00:16:18;;;;;;;23.35;17.90;;;;;;;;;;511551;29;849;-73
2022/03/20 00:16:33;;;;;;;25.30;19.40;;;;;;;;;;509743;29;1353;-73
2022/03/20 00:16:49;;;;;;;29.23;22.00;;;;;;;;;;510166;29;757;-73
2022/03/20 00:17:04;;;;;;;30.83;23.10;;;;;;;;;;511327;29;750;-73
2022/03/20 00:17:22;;;;;;;30.20;22.60;;;;;;;;;;511179;29;959;-73
2022/03/20 00:17:38;;;;;;;29.23;21.92;;;;;;;;;;511465;29;777;-73
2022/03/20 00:17:53;;;;;;;27.23;20.93;;;;;;;;;;512015;28;1078;-73
2022/03/20 00:18:09;;;;;;;26.77;20.50;;;;;;;;;;511521;29;1261;-73
2022/03/20 00:18:26;;;;;;;28.63;21.40;;;;;;;;;;511120;28;1500;-73
2022/03/20 00:18:41;;;;;;;32.50;23.42;;;;;;;;;;511795;28;848;-73
2022/03/20 00:18:57;;;;;;;33.22;24.92;;;;;;;;;;512884;28;960;-73
2022/03/20 00:19:13;;;;;;;29.88;23.92;;;;;;;;;;513381;28;836;-73
2022/03/20 00:19:28;;;;;;;27.40;22.23;;;;;;;;;;508610;28;1241;-73
2022/03/20 00:19:44;;;;;;;29.40;22.40;;;;;;;;;;507335;28;999;-73
2022/03/20 00:20:00;;;;;;;30.10;22.63;;;;;;;;;;507312;28;845;-73
2022/03/20 00:20:16;;;;;;;32.65;24.95;;;;;;;;;;508760;28;1273;-73
2022/03/20 00:20:36;;;;;;;33.20;25.27;;;;;;;;;;509425;29;848;-73
2022/03/20 00:20:59;;;;;;;26.55;21.27;;;;;;;;;;507444;29;1506;-73
2022/03/20 00:21:15;;;;;;;21.77;18.13;;;;;;;;;;507364;29;1236;-73
2022/03/20 00:21:31;;;;;;;22.55;17.77;;;;;;;;;;506966;29;1371;-73
2022/03/20 00:21:46;;;;;;;23.67;18.13;;;;;;;;;;505508;29;1175;-73
2022/03/20 00:22:02;;;;;;;23.00;18.63;;;;;;;;;;504343;29;1205;-73
2022/03/20 00:22:17;;;;;;;24.73;19.43;;;;;;;;;;507586;29;928;-73
2022/03/20 00:22:34;;;;;;;24.20;19.10;;;;;;;;;;507607;29;735;-73
2022/03/20 00:22:49;;;;;;;22.65;18.50;;;;;;;;;;507117;29;1469;-73
2022/03/20 00:23:06;;;;;;;23.43;18.27;;;;;;;;;;505574;29;1148;-74
2022/03/20 00:23:23;;;;;;;23.75;18.08;;;;;;;;;;503667;29;1390;-73
2022/03/20 00:23:39;;;;;;;22.13;17.80;;;;;;;;;;505792;29;790;-73
2022/03/20 00:23:54;;;;;;;20.50;17.20;;;;;;;;;;506919;29;774;-73
2022/03/20 00:24:09;;;;;;;21.27;17.40;;;;;;;;;;507473;29;829;-73
2022/03/20 00:24:25;;;;;;;20.92;17.30;;;;;;;;;;508506;29;1076;-73
2022/03/20 00:24:40;;;;;;;20.20;16.93;;;;;;;;;;508047;29;1301;-73
2022/03/20 00:24:57;;;;;;;20.45;17.25;;;;;;;;;;509941;29;888;-73
2022/03/20 00:25:13;;;;;;;21.70;17.33;;;;;;;;;;511142;29;749;-73
2022/03/20 00:25:28;;;;;;;22.83;17.33;;;;;;;;;;511350;29;797;-72
2022/03/20 00:25:45;;;;;;;22.40;17.67;;;;;;;;;;511114;29;754;-73
2022/03/20 00:26:00;;;;;;;22.27;17.60;;;;;;;;;;511548;29;808;-73
2022/03/20 00:26:17;;;;;;;22.27;17.60;;;;;;;;;;511312;29;1185;-73
2022/03/20 00:26:33;;;;;;;21.65;17.30;;;;;;;;;;512317;28;856;-73
2022/03/20 00:26:56;;;;;;;22.95;17.92;;;;;;;;;;513370;28;864;-73
2022/03/20 00:27:13;;;;;;;22.92;18.08;;;;;;;;;;511390;29;1522;-73
2022/03/20 00:27:29;;;;;;;21.52;17.80;;;;;;;;;;511489;29;840;-73
2022/03/20 00:27:44;;;;;;;20.97;17.57;;;;;;;;;;511104;29;974;-73
2022/03/20 00:28:03;;;;;;;22.00;18.00;;;;;;;;;;509413;29;1396;-73
2022/03/20 00:28:20;;;;;;;20.98;17.92;;;;;;;;;;509254;29;1465;-73
2022/03/20 00:28:36;;;;;;;22.70;17.42;;;;;;;;;;510514;29;971;-73
2022/03/20 00:28:52;;;;;;;23.87;17.80;;;;;;;;;;508281;29;1131;-73
2022/03/20 00:29:07;;;;;;;21.70;17.67;;;;;;;;;;510706;29;830;-73
2022/03/20 00:29:27;;;;;;;21.90;18.03;;;;;;;;;;510779;29;754;-73
2022/03/20 00:29:43;;;;;;;23.70;19.00;;;;;;;;;;509418;29;1431;-73
2022/03/20 00:29:58;;;;;;;24.10;19.47;;;;;;;;;;511420;28;1304;-73
2022/03/20 00:30:14;;;;;;;24.87;19.23;;;;;;;;;;512384;28;1375;-73
2022/03/20 00:30:29;;;;;;;24.10;18.60;;;;;;;;;;512284;28;812;-73
2022/03/20 00:30:46;;;;;;;23.73;18.20;;;;;;;;;;511228;29;1923;-73
2022/03/20 00:31:02;;;;;;;23.73;18.20;;;;;;;;;;509408;29;1662;-73
2022/03/20 00:31:17;;;;;;;23.23;18.10;;;;;;;;;;507307;29;1330;-73
2022/03/20 00:31:33;;;;;;;22.42;17.92;;;;;;;;;;507443;29;924;-73
2022/03/20 00:31:48;;;;;;;20.90;17.75;;;;;;;;;;505056;29;1437;-73
2022/03/20 00:32:05;;;;;;;22.03;17.57;;;;;;;;;;505310;29;731;-73
2022/03/20 00:32:20;;;;;;;22.42;17.60;;;;;;;;;;504966;29;1404;-73
2022/03/20 00:32:36;;;;;;;22.27;17.83;;;;;;;;;;506121;29;1275;-73
2022/03/20 00:32:51;;;;;;;21.92;17.45;;;;;;;;;;508133;29;983;-72
2022/03/20 00:33:06;;;;;;;22.80;17.53;;;;;;;;;;509848;29;1091;-73
2022/03/20 00:33:22;;;;;;;24.30;17.73;;;;;;;;;;510513;29;1469;-73
2022/03/20 00:33:37;;;;;;;24.05;17.60;;;;;;;;;;510996;28;816;-73
2022/03/20 00:33:53;;;;;;;23.33;17.70;;;;;;;;;;510192;29;1207;-73
2022/03/20 00:34:09;;;;;;;23.33;17.77;;;;;;;;;;509026;29;888;-73
2022/03/20 00:34:24;;;;;;;23.05;17.48;;;;;;;;;;511262;29;873;-73
2022/03/20 00:34:40;;;;;;;21.93;16.93;;;;;;;;;;509364;29;1150;-73
2022/03/20 00:34:59;;;;;;;20.55;17.10;;;;;;;;;;509402;29;854;-73
2022/03/20 00:35:14;;;;;;;20.67;17.42;;;;;;;;;;507502;29;861;-73
2022/03/20 00:35:30;;;;;;;22.97;17.17;;;;;;;;;;507521;29;833;-73
2022/03/20 00:35:46;;;;;;;22.77;16.63;;;;;;;;;;508270;29;916;-73
2022/03/20 00:36:01;;;;;;;21.80;17.25;;;;;;;;;;509398;29;912;-73
2022/03/20 00:36:16;;;;;;;22.70;17.83;;;;;;;;;;509203;29;908;-73
2022/03/20 00:36:35;;;;;;;23.53;17.53;;;;;;;;;;510308;29;857;-73
2022/03/20 00:36:50;;;;;;;21.63;16.95;;;;;;;;;;511498;29;798;-74
2022/03/20 00:37:07;;;;;;;21.97;17.43;;;;;;;;;;511302;29;808;-73
2022/03/20 00:37:23;;;;;;;22.88;17.50;;;;;;;;;;511394;29;1330;-73
2022/03/20 00:37:38;;;;;;;23.92;17.23;;;;;;;;;;511591;29;762;-73
2022/03/20 00:37:53;;;;;;;24.53;17.30;;;;;;;;;;511616;29;790;-73
2022/03/20 00:38:09;;;;;;;22.53;17.13;;;;;;;;;;511351;29;845;-73
2022/03/20 00:38:24;;;;;;;20.33;16.87;;;;;;;;;;510072;29;1406;-73
2022/03/20 00:38:39;;;;;;;20.57;16.77;;;;;;;;;;510093;29;821;-73
2022/03/20 00:38:55;;;;;;;21.80;16.85;;;;;;;;;;510928;29;746;-72
2022/03/20 00:39:10;;;;;;;22.43;17.13;;;;;;;;;;509532;29;1139;-73
2022/03/20 00:39:26;;;;;;;23.15;17.35;;;;;;;;;;508356;29;1182;-72
2022/03/20 00:39:41;;;;;;;22.63;17.13;;;;;;;;;;509365;29;920;-72
2022/03/20 00:39:56;;;;;;;22.83;16.90;;;;;;;;;;507257;29;1242;-72
2022/03/20 00:40:12;;;;;;;23.85;17.10;;;;;;;;;;507452;29;722;-72
2022/03/20 00:40:27;;;;;;;22.90;17.17;;;;;;;;;;509123;29;896;-72
2022/03/20 00:40:43;;;;;;;21.37;16.80;;;;;;;;;;507093;29;1518;-72
2022/03/20 00:40:59;;;;;;;20.27;16.40;;;;;;;;;;505760;29;1552;-73
2022/03/20 00:41:14;;;;;;;20.93;16.67;;;;;;;;;;507246;29;1389;-73
2022/03/20 00:41:29;;;;;;;22.13;17.07;;;;;;;;;;507446;29;723;-73
2022/03/20 00:41:44;;;;;;;24.00;17.17;;;;;;;;;;507809;29;785;-73
2022/03/20 00:42:00;;;;;;;22.80;17.13;;;;;;;;;;507484;29;917;-73
2022/03/20 00:42:16;;;;;;;21.02;17.17;;;;;;;;;;507257;29;952;-73
2022/03/20 00:42:31;;;;;;;23.13;17.50;;;;;;;;;;507345;29;825;-73
2022/03/20 00:42:46;;;;;;;23.97;17.47;;;;;;;;;;509666;29;1082;-73
2022/03/20 00:43:03;;;;;;;22.85;17.25;;;;;;;;;;511527;29;924;-73
2022/03/20 00:43:19;;;;;;;22.45;17.45;;;;;;;;;;511094;28;1511;-73
2022/03/20 00:43:36;;;;;;;22.10;17.10;;;;;;;;;;512201;28;862;-73
2022/03/20 00:43:51;;;;;;;21.08;16.88;;;;;;;;;;512062;28;1398;-73
2022/03/20 00:44:07;;;;;;;21.00;17.30;;;;;;;;;;513232;28;738;-73
2022/03/20 00:44:22;;;;;;;21.70;17.17;;;;;;;;;;512853;28;762;-73
2022/03/20 00:44:37;;;;;;;21.90;17.07;;;;;;;;;;513176;28;920;-73
2022/03/20 00:44:52;;;;;;;21.95;17.25;;;;;;;;;;513647;28;786;-73
2022/03/20 00:45:08;;;;;;;21.30;17.20;;;;;;;;;;510879;29;1182;-73
2022/03/20 00:45:24;;;;;;;21.00;17.33;;;;;;;;;;511453;29;1222;-73
2022/03/20 00:45:39;;;;;;;20.75;16.90;;;;;;;;;;511392;28;1086;-73
2022/03/20 00:45:55;;;;;;;20.73;16.80;;;;;;;;;;511877;29;1288;-73
2022/03/20 00:46:10;;;;;;;20.90;17.27;;;;;;;;;;511882;29;959;-73
2022/03/20 00:46:27;;;;;;;20.55;17.15;;;;;;;;;;511410;29;801;-73
2022/03/20 00:46:43;;;;;;;20.52;17.08;;;;;;;;;;511506;29;832;-73
2022/03/20 00:46:59;;;;;;;19.85;16.95;;;;;;;;;;511978;29;798;-73
2022/03/20 00:47:14;;;;;;;20.87;16.83;;;;;;;;;;509937;29;1243;-73
2022/03/20 00:47:29;;;;;;;20.67;16.70;;;;;;;;;;509815;29;865;-73
2022/03/20 00:47:45;;;;;;;19.67;16.50;;;;;;;;;;510370;29;715;-73
2022/03/20 00:48:00;;;;;;;22.63;16.85;;;;;;;;;;509753;29;1294;-73
2022/03/20 00:48:15;;;;;;;22.53;16.70;;;;;;;;;;507731;29;1530;-73
2022/03/20 00:48:31;;;;;;;20.33;16.43;;;;;;;;;;509314;29;839;-73
2022/03/20 00:48:46;;;;;;;20.03;16.00;;;;;;;;;;507656;29;997;-73
2022/03/20 00:49:01;;;;;;;21.30;16.03;;;;;;;;;;509948;29;806;-73
2022/03/20 00:49:17;;;;;;;22.07;16.90;;;;;;;;;;511619;29;1131;-73
2022/03/20 00:49:32;;;;;;;22.50;17.27;;;;;;;;;;509987;29;1316;-73
2022/03/20 00:49:47;;;;;;;22.65;17.13;;;;;;;;;;511753;29;1385;-73
2022/03/20 00:50:03;;;;;;;20.90;16.77;;;;;;;;;;511641;28;1353;-73
2022/03/20 00:50:18;;;;;;;22.95;16.83;;;;;;;;;;511790;29;979;-73
2022/03/20 00:50:35;;;;;;;23.93;17.17;;;;;;;;;;513157;28;1984;-73
2022/03/20 00:50:50;;;;;;;21.98;17.10;;;;;;;;;;511443;29;1528;-73
2022/03/20 00:51:10;;;;;;;21.37;17.23;;;;;;;;;;511786;29;758;-73
2022/03/20 00:51:26;;;;;;;21.98;17.23;;;;;;;;;;511732;29;818;-73
2022/03/20 00:51:42;;;;;;;22.25;17.23;;;;;;;;;;508472;29;1559;-73
2022/03/20 00:51:58;;;;;;;20.75;17.08;;;;;;;;;;507446;29;1158;-72
2022/03/20 00:52:13;;;;;;;19.92;16.65;;;;;;;;;;508257;28;1111;-72
2022/03/20 00:52:28;;;;;;;21.20;17.33;;;;;;;;;;509349;29;1273;-73
2022/03/20 00:52:43;;;;;;;22.87;18.07;;;;;;;;;;509423;29;1352;-73
2022/03/20 00:52:59;;;;;;;23.67;17.58;;;;;;;;;;510489;29;1305;-73
2022/03/20 00:53:15;;;;;;;22.23;16.93;;;;;;;;;;509426;29;1462;-73
2022/03/20 00:53:30;;;;;;;23.25;18.05;;;;;;;;;;509992;29;790;-73
2022/03/20 00:53:46;;;;;;;26.30;19.60;;;;;;;;;;511697;29;742;-73
2022/03/20 00:54:01;;;;;;;25.77;19.60;;;;;;;;;;509579;29;1194;-73
2022/03/20 00:54:16;;;;;;;24.80;19.47;;;;;;;;;;509970;29;969;-73
2022/03/20 00:54:32;;;;;;;24.33;19.15;;;;;;;;;;509707;29;1174;-73
2022/03/20 00:54:47;;;;;;;22.30;18.50;;;;;;;;;;509384;29;1273;-73
2022/03/20 00:55:03;;;;;;;23.98;18.00;;;;;;;;;;509621;29;1181;-73
2022/03/20 00:55:19;;;;;;;26.25;18.10;;;;;;;;;;511316;29;1636;-73
2022/03/20 00:55:35;;;;;;;24.40;18.77;;;;;;;;;;511652;29;837;-73
2022/03/20 00:55:50;;;;;;;23.00;18.63;;;;;;;;;;512635;28;826;-73
2022/03/20 00:56:05;;;;;;;22.87;18.13;;;;;;;;;;514178;28;936;-73
2022/03/20 00:56:20;;;;;;;22.03;17.87;;;;;;;;;;513816;28;825;-73
2022/03/20 00:56:36;;;;;;;23.20;17.70;;;;;;;;;;514047;28;758;-73
2022/03/20 00:56:52;;;;;;;23.43;17.10;;;;;;;;;;513563;28;995;-73
2022/03/20 00:57:08;;;;;;;21.48;16.88;;;;;;;;;;511838;29;1286;-73
2022/03/20 00:57:23;;;;;;;20.53;16.87;;;;;;;;;;512008;29;793;-73
2022/03/20 00:57:39;;;;;;;20.27;16.93;;;;;;;;;;512140;29;727;-73
2022/03/20 00:57:54;;;;;;;20.60;17.10;;;;;;;;;;510031;29;1150;-73
2022/03/20 00:58:11;;;;;;;21.30;17.40;;;;;;;;;;510285;29;876;-73
2022/03/20 00:58:27;;;;;;;22.60;17.45;;;;;;;;;;507927;29;1580;-73
2022/03/20 00:58:42;;;;;;;22.40;17.00;;;;;;;;;;508033;29;1186;-73
2022/03/20 00:58:57;;;;;;;23.05;17.02;;;;;;;;;;506781;29;1230;-73
2022/03/20 00:59:13;;;;;;;23.27;17.43;;;;;;;;;;508255;29;939;-73
2022/03/20 00:59:28;;;;;;;23.67;17.93;;;;;;;;;;509625;29;801;-73
2022/03/20 00:59:43;;;;;;;24.30;18.42;;;;;;;;;;510713;29;952;-73
2022/03/20 00:59:59;;;;;;;25.27;18.63;;;;;;;;;;511829;29;1062;-73
2022/03/20 01:00:16;;;;;;;24.97;17.93;;;;;;;;;;512068;29;801;-73
2022/03/20 01:00:32;;;;;;;21.80;16.83;;;;;;;;;;512345;28;1854;-73
2022/03/20 01:00:50;;;;;;;21.13;17.15;;;;;;;;;;512530;28;806;-73
2022/03/20 01:01:09;;;;;;;25.48;19.23;;;;;;;;;;510848;28;1424;-73
2022/03/20 01:01:26;;;;;;;26.30;19.65;;;;;;;;;;509205;28;986;-73
2022/03/20 01:01:42;;;;;;;22.02;18.35;;;;;;;;;;508337;28;834;-73
2022/03/20 01:01:57;;;;;;;22.63;18.30;;;;;;;;;;509999;29;769;-73
2022/03/20 01:02:13;;;;;;;23.63;18.60;;;;;;;;;;509988;29;786;-73
2022/03/20 01:02:28;;;;;;;25.13;18.87;;;;;;;;;;510008;29;750;-73
2022/03/20 01:02:45;;;;;;;24.80;18.88;;;;;;;;;;511344;29;817;-73
2022/03/20 01:03:00;;;;;;;23.55;18.63;;;;;;;;;;512055;29;1432;-73
2022/03/20 01:03:16;;;;;;;23.23;17.93;;;;;;;;;;511319;28;1473;-73
2022/03/20 01:03:31;;;;;;;21.57;17.63;;;;;;;;;;512643;28;948;-73
2022/03/20 01:03:46;;;;;;;22.38;17.70;;;;;;;;;;513713;28;746;-73
2022/03/20 01:04:02;;;;;;;23.63;17.80;;;;;;;;;;509571;29;1128;-73
2022/03/20 01:04:17;;;;;;;23.47;17.93;;;;;;;;;;507999;29;1265;-73
2022/03/20 01:04:32;;;;;;;22.92;17.80;;;;;;;;;;508179;29;743;-73
2022/03/20 01:04:47;;;;;;;22.87;17.47;;;;;;;;;;508243;29;937;-73
2022/03/20 01:05:03;;;;;;;21.93;17.00;;;;;;;;;;510430;29;1032;-73
2022/03/20 01:05:18;;;;;;;20.77;16.92;;;;;;;;;;511693;29;1137;-73
2022/03/20 01:05:34;;;;;;;20.33;17.03;;;;;;;;;;512136;29;1135;-73
2022/03/20 01:05:49;;;;;;;20.92;17.02;;;;;;;;;;510413;29;1198;-73
2022/03/20 01:06:06;;;;;;;22.90;17.57;;;;;;;;;;510308;29;1249;-73
2022/03/20 01:06:22;;;;;;;22.40;17.73;;;;;;;;;;510064;29;877;-73
2022/03/20 01:06:37;;;;;;;21.75;17.45;;;;;;;;;;510323;29;774;-73
2022/03/20 01:06:58;;;;;;;22.10;17.50;;;;;;;;;;510309;29;824;-73
2022/03/20 01:07:13;;;;;;;21.10;16.95;;;;;;;;;;510293;29;837;-73
2022/03/20 01:07:28;;;;;;;21.67;17.13;;;;;;;;;;509736;29;854;-73
2022/03/20 01:07:44;;;;;;;21.37;16.63;;;;;;;;;;511324;29;849;-73
2022/03/20 01:07:59;;;;;;;20.58;16.58;;;;;;;;;;512163;29;812;-73
2022/03/20 01:08:14;;;;;;;21.27;17.23;;;;;;;;;;512045;28;1416;-73
2022/03/20 01:08:30;;;;;;;21.77;17.00;;;;;;;;;;512635;28;938;-73
2022/03/20 01:08:45;;;;;;;23.33;17.10;;;;;;;;;;514239;28;773;-73
2022/03/20 01:09:01;;;;;;;23.23;17.08;;;;;;;;;;512039;29;1238;-73
2022/03/20 01:09:16;;;;;;;22.43;17.17;;;;;;;;;;512228;29;821;-73
2022/03/20 01:09:31;;;;;;;23.27;17.07;;;;;;;;;;513664;28;750;-73
2022/03/20 01:09:47;;;;;;;22.23;17.10;;;;;;;;;;512231;29;1178;-73
2022/03/20 01:10:04;;;;;;;21.53;17.37;;;;;;;;;;511695;29;845;-73
2022/03/20 01:10:19;;;;;;;21.33;16.92;;;;;;;;;;512267;29;798;-73
2022/03/20 01:10:35;;;;;;;21.95;16.85;;;;;;;;;;512082;29;1970;-73
2022/03/20 01:10:50;;;;;;;22.13;17.20;;;;;;;;;;512677;28;1233;-74
2022/03/20 01:11:08;;;;;;;21.47;17.00;;;;;;;;;;512078;29;1209;-73
2022/03/20 01:11:23;;;;;;;21.88;16.95;;;;;;;;;;509785;29;1228;-73
2022/03/20 01:11:38;;;;;;;22.27;17.03;;;;;;;;;;510202;29;1251;-73
2022/03/20 01:11:55;;;;;;;22.77;17.13;;;;;;;;;;511931;29;1180;-73
2022/03/20 01:12:10;;;;;;;22.85;17.33;;;;;;;;;;511792;29;836;-73
2022/03/20 01:12:26;;;;;;;23.13;16.92;;;;;;;;;;511372;29;750;-73
2022/03/20 01:12:41;;;;;;;23.93;17.03;;;;;;;;;;510926;28;1123;-73
2022/03/20 01:12:57;;;;;;;23.02;17.00;;;;;;;;;;509166;29;1465;-73
2022/03/20 01:13:12;;;;;;;21.70;16.73;;;;;;;;;;511552;29;924;-73
2022/03/20 01:13:29;;;;;;;22.08;17.08;;;;;;;;;;512560;28;1477;-73
2022/03/20 01:13:44;;;;;;;22.65;16.75;;;;;;;;;;511570;29;1272;-73
2022/03/20 01:14:00;;;;;;;21.33;16.45;;;;;;;;;;510929;29;805;-73
2022/03/20 01:14:16;;;;;;;21.30;16.95;;;;;;;;;;512068;29;834;-73
2022/03/20 01:14:31;;;;;;;22.13;17.30;;;;;;;;;;510339;29;830;-73
2022/03/20 01:14:47;;;;;;;22.83;17.10;;;;;;;;;;510939;28;1238;-73
2022/03/20 01:15:04;;;;;;;23.17;16.75;;;;;;;;;;513601;28;820;-73
2022/03/20 01:15:20;;;;;;;21.40;16.38;;;;;;;;;;511966;29;1140;-73
2022/03/20 01:15:35;;;;;;;20.90;16.30;;;;;;;;;;509627;29;1494;-73
2022/03/20 01:15:50;;;;;;;20.50;16.50;;;;;;;;;;509866;29;672;-73
2022/03/20 01:16:06;;;;;;;20.63;16.60;;;;;;;;;;510106;29;845;-73
2022/03/20 01:16:22;;;;;;;21.75;16.75;;;;;;;;;;510005;29;846;-73
2022/03/20 01:16:37;;;;;;;22.23;17.00;;;;;;;;;;510630;29;790;-73
2022/03/20 01:16:54;;;;;;;22.20;16.92;;;;;;;;;;512065;29;944;-73
2022/03/20 01:17:10;;;;;;;21.67;16.70;;;;;;;;;;512455;28;865;-73
2022/03/20 01:17:25;;;;;;;21.47;17.00;;;;;;;;;;513404;28;840;-73
2022/03/20 01:17:40;;;;;;;21.38;16.98;;;;;;;;;;512318;28;762;-73
2022/03/20 01:17:56;;;;;;;22.00;16.90;;;;;;;;;;511988;28;1066;-73
2022/03/20 01:18:11;;;;;;;21.60;16.90;;;;;;;;;;513519;28;1153;-73
2022/03/20 01:18:26;;;;;;;20.40;16.67;;;;;;;;;;510799;29;1504;-73
2022/03/20 01:18:41;;;;;;;20.30;16.73;;;;;;;;;;508361;29;1130;-73
2022/03/20 01:18:57;;;;;;;20.70;16.63;;;;;;;;;;508764;29;1183;-73
2022/03/20 01:19:12;;;;;;;23.35;16.70;;;;;;;;;;510025;29;750;-73
2022/03/20 01:19:27;;;;;;;22.83;16.57;;;;;;;;;;508621;29;1042;-73
2022/03/20 01:19:43;;;;;;;20.63;16.00;;;;;;;;;;506591;29;1234;-73
2022/03/20 01:19:58;;;;;;;21.10;16.05;;;;;;;;;;507385;29;976;-73
2022/03/20 01:20:14;;;;;;;20.27;16.43;;;;;;;;;;507595;29;1132;-73
2022/03/20 01:20:29;;;;;;;20.25;16.45;;;;;;;;;;508190;29;746;-73
2022/03/20 01:20:44;;;;;;;22.33;16.90;;;;;;;;;;509960;29;1143;-73
2022/03/20 01:20:59;;;;;;;23.10;17.17;;;;;;;;;;510171;29;806;-73
2022/03/20 01:21:15;;;;;;;22.17;16.73;;;;;;;;;;509991;29;1138;-73
2022/03/20 01:21:30;;;;;;;21.05;16.77;;;;;;;;;;510167;29;770;-73
2022/03/20 01:21:46;;;;;;;21.03;16.63;;;;;;;;;;510258;29;1166;-73
2022/03/20 01:22:01;;;;;;;20.90;16.40;;;;;;;;;;509574;29;758;-73
2022/03/20 01:22:17;;;;;;;19.60;16.33;;;;;;;;;;511650;29;922;-73
2022/03/20 01:22:32;;;;;;;20.10;16.40;;;;;;;;;;512163;29;758;-73
2022/03/20 01:22:49;;;;;;;20.48;16.02;;;;;;;;;;510036;29;1261;-73
2022/03/20 01:23:04;;;;;;;19.98;15.63;;;;;;;;;;510129;29;802;-73
2022/03/20 01:23:21;;;;;;;21.73;16.53;;;;;;;;;;509989;29;1493;-73
2022/03/20 01:23:38;;;;;;;22.13;16.90;;;;;;;;;;511015;29;892;-73
2022/03/20 01:23:54;;;;;;;20.42;16.55;;;;;;;;;;511541;28;868;-73
2022/03/20 01:24:09;;;;;;;20.13;16.87;;;;;;;;;;511377;29;821;-73
2022/03/20 01:24:27;;;;;;;21.63;17.10;;;;;;;;;;513113;28;793;-73
2022/03/20 01:24:42;;;;;;;22.40;16.55;;;;;;;;;;511852;28;1409;-73
2022/03/20 01:24:58;;;;;;;22.25;16.70;;;;;;;;;;512056;29;893;-73
2022/03/20 01:25:13;;;;;;;21.63;16.97;;;;;;;;;;509821;29;1159;-73
2022/03/20 01:25:30;;;;;;;21.23;16.40;;;;;;;;;;510883;29;777;-73
2022/03/20 01:25:45;;;;;;;20.33;15.82;;;;;;;;;;511934;29;837;-73
2022/03/20 01:26:00;;;;;;;20.33;15.83;;;;;;;;;;511266;29;877;-73
2022/03/20 01:26:15;;;;;;;20.63;16.13;;;;;;;;;;511325;29;1101;-73
2022/03/20 01:26:31;;;;;;;21.30;16.63;;;;;;;;;;510441;29;1334;-73
2022/03/20 01:26:46;;;;;;;21.23;16.73;;;;;;;;;;512226;29;790;-73
2022/03/20 01:27:01;;;;;;;19.95;16.77;;;;;;;;;;512251;28;928;-73
2022/03/20 01:27:17;;;;;;;19.97;16.40;;;;;;;;;;512120;29;886;-73
2022/03/20 01:27:33;;;;;;;20.57;16.37;;;;;;;;;;512138;29;726;-73
2022/03/20 01:27:48;;;;;;;21.50;16.77;;;;;;;;;;512024;29;812;-73
2022/03/20 01:28:03;;;;;;;22.40;16.87;;;;;;;;;;511568;29;1364;-72
2022/03/20 01:28:20;;;;;;;22.10;16.90;;;;;;;;;;508969;29;1594;-73
2022/03/20 01:28:35;;;;;;;21.30;16.85;;;;;;;;;;511105;29;1449;-73
2022/03/20 01:28:50;;;;;;;20.80;16.65;;;;;;;;;;511333;29;1206;-73
2022/03/20 01:29:06;;;;;;;21.30;16.80;;;;;;;;;;510104;29;1154;-73
2022/03/20 01:29:21;;;;;;;22.10;16.70;;;;;;;;;;510773;29;779;-73
2022/03/20 01:29:37;;;;;;;22.20;16.63;;;;;;;;;;512039;29;766;-73
2022/03/20 01:29:52;;;;;;;21.17;16.33;;;;;;;;;;511978;29;1094;-73
2022/03/20 01:30:08;;;;;;;20.98;16.30;;;;;;;;;;511477;29;940;-73
2022/03/20 01:30:23;;;;;;;22.43;16.80;;;;;;;;;;510427;29;1125;-73
2022/03/20 01:30:38;;;;;;;23.92;16.98;;;;;;;;;;512295;28;1907;-73
2022/03/20 01:30:55;;;;;;;22.43;16.80;;;;;;;;;;512174;29;1141;-73
2022/03/20 01:31:10;;;;;;;22.70;16.88;;;;;;;;;;512410;28;872;-73
2022/03/20 01:31:28;;;;;;;22.30;16.70;;;;;;;;;;513968;28;825;-73
2022/03/20 01:31:43;;;;;;;19.92;16.45;;;;;;;;;;511668;29;1273;-73
2022/03/20 01:31:58;;;;;;;20.60;16.60;;;;;;;;;;511649;29;826;-73
2022/03/20 01:32:14;;;;;;;20.47;16.73;;;;;;;;;;512214;29;813;-73
2022/03/20 01:32:30;;;;;;;21.27;16.88;;;;;;;;;;509572;29;1178;-73
2022/03/20 01:32:45;;;;;;;20.77;16.33;;;;;;;;;;510843;29;790;-73
2022/03/20 01:33:01;;;;;;;20.03;15.93;;;;;;;;;;512048;29;853;-73
2022/03/20 01:33:17;;;;;;;20.98;16.48;;;;;;;;;;509459;29;1572;-73
2022/03/20 01:33:34;;;;;;;22.25;17.10;;;;;;;;;;511052;29;774;-73
2022/03/20 01:33:49;;;;;;;22.13;17.10;;;;;;;;;;509696;29;826;-73
2022/03/20 01:34:05;;;;;;;21.80;17.10;;;;;;;;;;509693;29;820;-73
2022/03/20 01:34:20;;;;;;;22.33;16.83;;;;;;;;;;510560;29;936;-73
2022/03/20 01:34:35;;;;;;;21.93;16.53;;;;;;;;;;511677;29;734;-74
2022/03/20 01:34:50;;;;;;;20.87;16.47;;;;;;;;;;510063;29;829;-73
2022/03/20 01:35:08;;;;;;;21.17;16.80;;;;;;;;;;509712;29;731;-73
2022/03/20 01:35:23;;;;;;;21.40;16.90;;;;;;;;;;509277;29;1308;-73
2022/03/20 01:35:39;;;;;;;21.47;16.90;;;;;;;;;;510584;29;857;-73